createdAt,value
2022-12-14T00:01:20.815Z,28.00
2022-12-14T00:03:48.165Z,23.33
2022-12-14T00:06:17.151Z,30.30
2022-12-14T00:08:44.382Z,27.27
2022-12-14T00:11:11.226Z,24.95
2022-12-14T00:13:39.696Z,24.65
2022-12-14T00:16:07.966Z,24.42
2022-12-14T00:18:35.156Z,24.60
2022-12-14T00:21:06.245Z,21.80
2022-12-14T00:23:38.713Z,26.85
2022-12-14T00:26:10.525Z,20.20
2022-12-14T00:28:39.126Z,19.23
2022-12-14T00:31:06.325Z,24.30
2022-12-14T00:33:33.212Z,29.48
2022-12-14T00:36:00.429Z,23.17
2022-12-14T00:38:27.864Z,27.27
2022-12-14T00:40:55.369Z,25.63
2022-12-14T00:43:22.135Z,26.27
2022-12-14T00:45:50.926Z,24.35
2022-12-14T00:48:18.901Z,19.20
2022-12-14T00:50:48.489Z,16.70
2022-12-14T00:53:16.033Z,20.08
2022-12-14T00:55:49.279Z,24.15
2022-12-14T00:58:19.088Z,21.10
2022-12-14T01:00:46.483Z,25.30
2022-12-14T01:03:15.331Z,21.30
2022-12-14T01:05:42.175Z,26.42
2022-12-14T01:08:16.294Z,24.73
2022-12-14T01:10:43.140Z,21.20
2022-12-14T01:13:10.976Z,26.67
2022-12-14T01:15:37.814Z,19.65
2022-12-14T01:18:04.866Z,23.48
2022-12-14T01:20:32.985Z,24.23
2022-12-14T01:22:59.726Z,19.38
2022-12-14T01:25:26.474Z,23.98
2022-12-14T01:27:53.284Z,17.80
2022-12-14T01:30:20.247Z,23.40
2022-12-14T01:32:47.184Z,27.63
2022-12-14T01:35:14.130Z,27.25
2022-12-14T01:37:42.220Z,25.70
2022-12-14T01:40:09.717Z,24.13
2022-12-14T01:42:37.085Z,20.27
2022-12-14T01:45:05.551Z,24.50
2022-12-14T01:47:40.364Z,21.63
2022-12-14T01:50:15.712Z,24.77
2022-12-14T01:52:46.924Z,20.48
2022-12-14T01:55:18.678Z,21.92
2022-12-14T01:57:48.877Z,28.48
2022-12-14T02:00:16.345Z,29.45
2022-12-14T02:02:48.609Z,26.00
2022-12-14T02:05:18.187Z,17.73
2022-12-14T02:07:48.928Z,28.63
2022-12-14T02:10:16.414Z,19.95
2022-12-14T02:12:47.771Z,24.88
2022-12-14T02:15:15.533Z,23.45
2022-12-14T02:17:43.716Z,19.08
2022-12-14T02:20:11.618Z,18.45
2022-12-14T02:23:08.701Z,26.27
2022-12-14T02:26:06.361Z,18.13
2022-12-14T02:29:21.707Z,21.33
2022-12-14T02:31:57.883Z,18.33
2022-12-14T02:34:36.651Z,18.65
2022-12-14T02:37:10.795Z,16.27
2022-12-14T02:39:45.467Z,27.60
2022-12-14T02:42:14.646Z,16.30
2022-12-14T02:44:51.507Z,17.58
2022-12-14T02:47:24.224Z,22.63
2022-12-14T02:50:02.097Z,27.73
2022-12-14T02:52:38.369Z,18.92
2022-12-14T02:55:10.227Z,19.25
2022-12-14T02:57:40.723Z,23.23
2022-12-14T03:00:10.097Z,25.92
2022-12-14T03:02:39.597Z,19.85
2022-12-14T03:05:07.067Z,19.60
2022-12-14T03:07:41.954Z,20.80
2022-12-14T03:10:19.426Z,28.17
2022-12-14T03:12:51.722Z,22.42
2022-12-14T03:15:21.592Z,19.95
2022-12-14T03:17:52.749Z,17.33
2022-12-14T03:20:24.154Z,27.27
2022-12-14T03:22:56.383Z,14.75
2022-12-14T03:25:30.015Z,20.65
2022-12-14T03:28:02.119Z,22.42
2022-12-14T03:30:59.024Z,24.38
2022-12-14T03:33:24.334Z,23.67
2022-12-14T03:35:57.487Z,21.23
2022-12-14T03:38:30.905Z,25.63
2022-12-14T03:41:08.313Z,25.88
2022-12-14T03:43:42.249Z,21.85
2022-12-14T03:46:25.011Z,28.77
2022-12-14T03:48:54.487Z,19.95
2022-12-14T03:51:30.796Z,21.55
2022-12-14T03:54:06.265Z,23.17
2022-12-14T03:56:40.869Z,22.83
2022-12-14T03:59:12.623Z,17.02
2022-12-14T04:01:50.255Z,19.88
2022-12-14T04:04:22.013Z,19.20
2022-12-14T04:06:56.487Z,23.67
2022-12-14T04:09:31.191Z,12.52
2022-12-14T04:12:04.716Z,21.30
2022-12-14T04:14:34.933Z,20.13
2022-12-14T04:17:07.549Z,24.92
2022-12-14T04:19:40.451Z,19.17
2022-12-14T04:22:10.469Z,16.02
2022-12-14T04:24:41.621Z,25.52
2022-12-14T04:27:14.175Z,22.13
2022-12-14T04:29:47.423Z,15.27
2022-12-14T04:32:19.485Z,18.13
2022-12-14T04:34:49.593Z,17.85
2022-12-14T04:37:19.938Z,10.45
2022-12-14T04:39:51.070Z,17.13
2022-12-14T04:42:20.648Z,23.58
2022-12-14T04:44:50.356Z,26.05
2022-12-14T04:47:19.776Z,23.85
2022-12-14T04:49:50.538Z,19.73
2022-12-14T04:52:21.575Z,22.30
2022-12-14T04:54:51.081Z,21.85
2022-12-14T04:57:24.127Z,22.98
2022-12-14T04:59:51.509Z,29.63
2022-12-14T05:02:30.795Z,16.67
2022-12-14T05:05:07.638Z,28.02
2022-12-14T05:07:42.442Z,32.13
2022-12-14T05:10:14.128Z,27.73
2022-12-14T05:12:46.209Z,24.85
2022-12-14T05:15:16.959Z,17.50
2022-12-14T05:17:45.148Z,17.20
2022-12-14T05:20:16.611Z,20.90
2022-12-14T05:22:43.343Z,28.25
2022-12-14T05:25:10.305Z,25.38
2022-12-14T05:27:37.314Z,10.93
2022-12-14T05:30:05.391Z,16.38
2022-12-14T05:32:32.885Z,17.27
2022-12-14T05:35:01.279Z,16.70
2022-12-14T05:37:28.001Z,17.77
2022-12-14T05:39:54.763Z,25.48
2022-12-14T05:42:21.801Z,23.40
2022-12-14T05:44:48.514Z,21.55
2022-12-14T05:47:15.296Z,14.18
2022-12-14T05:49:42.027Z,24.25
2022-12-14T05:52:10.138Z,12.05
2022-12-14T05:54:37.008Z,27.13
2022-12-14T05:57:04.061Z,24.77
2022-12-14T05:59:30.980Z,20.77
2022-12-14T06:01:57.797Z,19.65
2022-12-14T06:04:24.630Z,21.75
2022-12-14T06:06:51.428Z,22.13
2022-12-14T06:09:19.941Z,17.40
2022-12-14T06:11:47.382Z,16.02
2022-12-14T06:14:14.470Z,17.58
2022-12-14T06:16:42.048Z,17.30
2022-12-14T06:19:09.315Z,19.85
2022-12-14T06:21:39.285Z,23.88
2022-12-14T06:24:07.081Z,19.95
2022-12-14T06:26:36.074Z,14.70
2022-12-14T06:29:03.630Z,20.65
2022-12-14T06:31:32.570Z,17.60
2022-12-14T06:34:01.240Z,18.35
2022-12-14T06:36:30.577Z,19.45
2022-12-14T06:39:00.737Z,24.10
2022-12-14T06:41:27.666Z,23.70
2022-12-14T06:43:55.755Z,19.50
2022-12-14T06:46:23.516Z,19.40
2022-12-14T06:48:51.321Z,18.48
2022-12-14T06:51:18.242Z,27.23
2022-12-14T06:53:45.040Z,19.85
2022-12-14T06:56:13.755Z,19.63
2022-12-14T06:58:41.214Z,19.13
2022-12-14T07:01:11.959Z,28.85
2022-12-14T07:03:39.161Z,24.00
2022-12-14T07:06:07.086Z,20.20
2022-12-14T07:08:35.870Z,22.60
2022-12-14T07:11:04.236Z,20.90
2022-12-14T07:13:31.150Z,25.58
2022-12-14T07:15:59.055Z,16.45
2022-12-14T07:18:28.357Z,19.83
2022-12-14T07:20:57.055Z,20.60
2022-12-14T07:23:27.885Z,17.75
2022-12-14T07:26:01.179Z,17.50
2022-12-14T07:28:28.430Z,20.13
2022-12-14T07:30:55.525Z,21.20
2022-12-14T07:33:22.527Z,30.05
2022-12-14T07:36:00.938Z,26.13
2022-12-14T07:38:27.649Z,23.88
2022-12-14T07:40:54.426Z,15.50
2022-12-14T07:43:21.153Z,20.20
2022-12-14T07:45:47.906Z,25.63
2022-12-14T07:48:14.614Z,19.13
2022-12-14T07:50:41.319Z,25.63
2022-12-14T07:53:09.533Z,24.48
2022-12-14T07:55:36.263Z,22.33
2022-12-14T07:58:03.011Z,18.23
2022-12-14T08:00:29.781Z,20.25
2022-12-14T08:02:56.670Z,21.38
2022-12-14T08:05:23.532Z,17.95
2022-12-14T08:07:50.460Z,19.17
2022-12-14T08:10:18.698Z,21.10
2022-12-14T08:12:45.505Z,19.40
2022-12-14T08:15:12.302Z,22.13
2022-12-14T08:17:39.121Z,19.52
2022-12-14T08:20:06.940Z,18.20
2022-12-14T08:22:33.768Z,18.17
2022-12-14T08:25:00.662Z,21.42
2022-12-14T08:27:30.217Z,22.83
2022-12-14T08:29:56.943Z,20.40
2022-12-14T08:32:23.750Z,17.00
2022-12-14T08:34:50.438Z,21.52
2022-12-14T08:37:17.216Z,14.85
2022-12-14T08:39:44.056Z,28.40
2022-12-14T08:42:16.213Z,15.38
2022-12-14T08:44:44.293Z,10.88
2022-12-14T08:47:11.076Z,17.77
2022-12-14T08:49:37.818Z,16.55
2022-12-14T08:52:04.737Z,50.17
2022-12-14T08:54:31.665Z,30.20
2022-12-14T08:56:58.391Z,29.20
2022-12-14T08:59:59.330Z,24.02
2022-12-14T09:02:13.308Z,24.40
2022-12-14T09:04:40.129Z,19.08
2022-12-14T09:07:06.842Z,27.98
2022-12-14T09:09:34.984Z,26.45
2022-12-14T09:12:01.871Z,25.75
2022-12-14T09:14:28.937Z,27.17
2022-12-14T09:16:55.652Z,23.85
2022-12-14T09:19:23.794Z,17.17
2022-12-14T09:21:50.558Z,28.73
2022-12-14T09:24:17.398Z,21.85
2022-12-14T09:26:44.183Z,26.48
2022-12-14T09:29:15.167Z,25.10
2022-12-14T09:31:42.164Z,25.45
2022-12-14T09:34:09.578Z,21.85
2022-12-14T09:36:38.404Z,26.67
2022-12-14T09:39:05.139Z,21.55
2022-12-14T09:41:46.216Z,26.67
2022-12-14T09:44:26.414Z,24.85
2022-12-14T09:47:00.621Z,33.05
2022-12-14T09:49:30.589Z,25.67
2022-12-14T09:52:01.525Z,16.42
2022-12-14T09:54:31.237Z,27.75
2022-12-14T09:57:00.874Z,16.23
2022-12-14T09:59:30.134Z,16.05
2022-12-14T10:02:29.836Z,25.25
2022-12-14T10:05:00.437Z,21.55
2022-12-14T10:07:35.245Z,12.70
2022-12-14T10:10:10.216Z,10.50
2022-12-14T10:12:49.503Z,27.70
2022-12-14T10:15:25.812Z,20.70
2022-12-14T10:18:49.425Z,25.30
2022-12-14T10:21:11.444Z,24.40
2022-12-14T10:23:41.797Z,22.98
2022-12-14T10:26:16.793Z,23.17
2022-12-14T10:28:48.062Z,25.80
2022-12-14T10:31:24.012Z,16.35
2022-12-14T10:33:51.713Z,25.23
2022-12-14T10:36:25.098Z,26.05
2022-12-14T10:38:58.747Z,28.48
2022-12-14T10:41:36.005Z,27.80
2022-12-14T10:44:12.680Z,29.92
2022-12-14T10:46:46.620Z,26.20
2022-12-14T10:49:18.305Z,25.40
2022-12-14T10:51:49.818Z,26.75
2022-12-14T10:54:28.013Z,28.10
2022-12-14T10:56:54.834Z,33.00
2022-12-14T10:59:39.852Z,21.60
2022-12-14T11:02:12.581Z,27.80
2022-12-14T11:04:44.659Z,25.48
2022-12-14T11:07:13.200Z,25.58
2022-12-14T11:09:42.220Z,25.55
2022-12-14T11:12:17.851Z,26.80
2022-12-14T11:14:52.778Z,27.75
2022-12-14T11:17:31.945Z,23.40
2022-12-14T11:20:20.426Z,26.48
2022-12-14T11:22:49.145Z,27.60
2022-12-14T11:25:33.415Z,24.05
2022-12-14T11:28:03.343Z,33.33
2022-12-14T11:30:30.174Z,31.55
2022-12-14T11:32:57.378Z,33.38
2022-12-14T11:35:24.144Z,33.78
2022-12-14T11:37:57.730Z,30.80
2022-12-14T11:40:26.955Z,27.35
2022-12-14T11:43:00.752Z,26.15
2022-12-14T11:45:32.978Z,24.33
2022-12-14T11:48:21.556Z,24.45
2022-12-14T11:50:49.710Z,23.35
2022-12-14T11:53:18.879Z,20.90
2022-12-14T11:55:50.387Z,17.55
2022-12-14T11:58:21.894Z,24.85
2022-12-14T12:00:51.136Z,27.08
2022-12-14T12:03:23.536Z,19.10
2022-12-14T12:05:51.929Z,31.15
2022-12-14T12:08:23.046Z,24.88
2022-12-14T12:10:52.118Z,27.52
2022-12-14T12:13:26.428Z,31.92
2022-12-14T12:15:55.858Z,26.00
2022-12-14T12:18:27.462Z,22.13
2022-12-14T12:20:59.462Z,23.35
2022-12-14T12:23:32.955Z,19.67
2022-12-14T12:26:12.500Z,32.58
2022-12-14T12:28:44.765Z,26.98
2022-12-14T12:31:16.311Z,20.65
2022-12-14T12:33:49.524Z,21.52
2022-12-14T12:36:23.547Z,22.70
2022-12-14T12:39:02.024Z,25.05
2022-12-14T12:41:34.261Z,28.25
2022-12-14T12:44:17.217Z,29.70
2022-12-14T12:47:23.119Z,26.55
2022-12-14T12:49:39.920Z,25.05
2022-12-14T12:52:18.981Z,24.63
2022-12-14T12:54:53.458Z,28.05
2022-12-14T12:57:22.146Z,21.90
2022-12-14T12:59:53.364Z,24.17
2022-12-14T13:02:28.686Z,24.50
2022-12-14T13:04:56.760Z,22.25
2022-12-14T13:07:31.962Z,22.45
2022-12-14T13:10:05.912Z,24.58
2022-12-14T13:12:37.349Z,25.95
2022-12-14T13:15:15.641Z,18.65
2022-12-14T13:17:45.831Z,21.02
2022-12-14T13:20:20.767Z,22.08
2022-12-14T13:22:48.666Z,26.88
2022-12-14T13:25:21.644Z,31.85
2022-12-14T13:28:07.365Z,27.38
2022-12-14T13:30:52.260Z,22.48
2022-12-14T13:33:46.575Z,41.25
2022-12-14T13:36:59.658Z,24.30
2022-12-14T13:39:46.553Z,33.63
2022-12-14T13:42:29.157Z,26.52
2022-12-14T13:44:58.674Z,22.65
2022-12-14T13:47:30.250Z,22.48
2022-12-14T13:52:48.870Z,32.40
2022-12-14T13:55:32.393Z,25.38
2022-12-14T13:58:15.572Z,29.55
2022-12-14T14:00:57.923Z,31.60
2022-12-14T14:03:45.865Z,31.35
2022-12-14T14:06:32.924Z,30.23
2022-12-14T14:09:19.673Z,26.17
2022-12-14T14:11:56.894Z,29.40
2022-12-14T14:14:44.908Z,34.80
2022-12-14T14:17:18.660Z,40.78
2022-12-14T14:19:49.374Z,31.23
2022-12-14T14:22:23.335Z,36.20
2022-12-14T14:25:00.145Z,35.67
2022-12-14T14:27:34.635Z,34.20
2022-12-14T14:30:01.406Z,35.13
2022-12-14T14:32:38.903Z,31.17
2022-12-14T14:35:20.352Z,28.05
2022-12-14T14:37:55.545Z,31.02
2022-12-14T14:40:50.963Z,22.63
2022-12-14T14:43:24.864Z,34.67
2022-12-14T14:45:54.860Z,34.58
2022-12-14T14:48:30.785Z,42.58
2022-12-14T14:51:16.330Z,27.13
2022-12-14T14:53:43.421Z,28.27
2022-12-14T14:56:32.313Z,31.88
2022-12-14T14:59:32.564Z,23.45
2022-12-14T15:02:02.920Z,22.55
2022-12-14T15:04:37.477Z,30.35
2022-12-14T15:07:08.249Z,19.60
2022-12-14T15:09:40.989Z,17.58
2022-12-14T15:12:21.919Z,21.33
2022-12-14T15:14:53.920Z,23.75
2022-12-14T15:17:22.413Z,30.00
2022-12-14T15:19:50.431Z,26.17
2022-12-14T15:22:21.339Z,24.52
2022-12-14T15:24:51.830Z,27.67
2022-12-14T15:27:24.455Z,22.58
2022-12-14T15:29:52.093Z,32.83
2022-12-14T15:32:23.166Z,33.53
2022-12-14T15:34:54.797Z,31.05
2022-12-14T15:37:29.516Z,24.83
2022-12-14T15:40:05.617Z,38.47
2022-12-14T15:42:32.501Z,24.33
2022-12-14T15:45:07.166Z,19.58
2022-12-14T15:47:33.925Z,29.08
2022-12-14T15:50:24.125Z,26.27
2022-12-14T15:52:54.610Z,25.17
2022-12-14T15:55:27.771Z,35.05
2022-12-14T15:57:54.976Z,26.80
2022-12-14T16:00:21.906Z,26.00
2022-12-14T16:02:49.419Z,20.13
2022-12-14T16:05:19.774Z,20.13
2022-12-14T16:07:50.294Z,23.83
2022-12-14T16:10:24.049Z,25.45
2022-12-14T16:12:55.020Z,29.50
2022-12-14T16:15:24.006Z,25.58
2022-12-14T16:17:59.218Z,27.65
2022-12-14T16:20:29.939Z,26.67
2022-12-14T16:22:59.402Z,27.92
2022-12-14T16:25:28.434Z,34.22
2022-12-14T16:27:55.527Z,32.83
2022-12-14T16:30:29.161Z,18.73
2022-12-14T16:33:13.586Z,34.15
2022-12-14T16:35:40.422Z,30.35
2022-12-14T16:38:10.453Z,23.45
2022-12-14T16:40:41.412Z,25.60
2022-12-14T16:43:26.232Z,25.63
2022-12-14T16:46:17.458Z,16.88
2022-12-14T16:49:18.049Z,23.65
2022-12-14T16:52:06.336Z,20.77
2022-12-14T16:54:33.909Z,20.00
2022-12-14T16:57:04.130Z,27.40
2022-12-14T16:59:40.366Z,28.67
2022-12-14T17:02:24.030Z,24.52
2022-12-14T17:04:51.104Z,29.88
2022-12-14T17:07:21.682Z,26.88
2022-12-14T17:09:48.806Z,28.70
2022-12-14T17:12:18.356Z,26.60
2022-12-14T17:14:49.982Z,30.35
2022-12-14T17:17:20.110Z,29.08
2022-12-14T17:19:46.903Z,24.95
2022-12-14T17:22:18.328Z,35.58
2022-12-14T17:24:45.139Z,25.05
2022-12-14T17:27:17.493Z,22.52
2022-12-14T17:29:44.396Z,24.17
2022-12-14T17:32:13.349Z,19.75
2022-12-14T17:34:40.115Z,27.40
2022-12-14T17:37:14.638Z,36.47
2022-12-14T17:39:41.479Z,40.92
2022-12-14T17:42:12.124Z,29.00
2022-12-14T17:44:41.893Z,28.55
2022-12-14T17:47:15.363Z,28.75
2022-12-14T17:49:42.259Z,25.42
2022-12-14T17:52:16.642Z,26.50
2022-12-14T17:54:43.359Z,32.03
2022-12-14T17:57:16.040Z,24.73
2022-12-14T17:59:47.488Z,31.23
2022-12-14T18:02:25.813Z,38.75
2022-12-14T18:04:52.736Z,29.27
2022-12-14T18:07:19.554Z,31.75
2022-12-14T18:09:46.434Z,31.20
2022-12-14T18:12:23.095Z,28.90
2022-12-14T18:14:52.120Z,40.90
2022-12-14T18:17:19.117Z,19.90
2022-12-14T18:19:49.662Z,26.92
2022-12-14T18:22:16.826Z,27.90
2022-12-14T18:24:43.719Z,36.13
2022-12-14T18:27:14.295Z,30.92
2022-12-14T18:29:41.140Z,29.30
2022-12-14T18:32:12.567Z,36.35
2022-12-14T18:34:39.403Z,33.03
2022-12-14T18:37:06.198Z,30.60
2022-12-14T18:39:32.997Z,39.10
2022-12-14T18:41:59.806Z,36.83
2022-12-14T18:44:26.881Z,37.13
2022-12-14T18:46:53.782Z,29.75
2022-12-14T18:49:21.996Z,43.75
2022-12-14T18:51:48.730Z,30.98
2022-12-14T18:54:15.482Z,48.35
2022-12-14T18:56:42.251Z,45.35
2022-12-14T18:59:08.986Z,53.58
2022-12-14T19:01:35.765Z,29.50
2022-12-14T19:04:02.696Z,39.58
2022-12-14T19:06:46.418Z,23.45
2022-12-14T19:09:13.609Z,29.33
2022-12-14T19:11:41.196Z,39.13
2022-12-14T19:14:08.151Z,33.15
2022-12-14T19:16:35.052Z,40.83
2022-12-14T19:19:02.052Z,39.72
2022-12-14T19:21:30.210Z,27.60
2022-12-14T19:23:57.194Z,33.95
2022-12-14T19:26:23.954Z,50.35
2022-12-14T19:28:50.722Z,40.15
2022-12-14T19:31:17.532Z,34.17
2022-12-14T19:33:44.302Z,26.05
2022-12-14T19:36:11.695Z,37.15
2022-12-14T19:38:39.857Z,32.72
2022-12-14T19:41:10.004Z,24.90
2022-12-14T19:43:36.837Z,41.75
2022-12-14T19:46:06.183Z,40.10
2022-12-14T19:48:32.985Z,51.35
2022-12-14T19:51:03.133Z,40.58
2022-12-14T19:53:31.517Z,31.20
2022-12-14T19:55:59.983Z,35.28
2022-12-14T19:58:27.304Z,47.35
2022-12-14T20:00:54.200Z,28.77
2022-12-14T20:03:21.696Z,40.17
2022-12-14T20:05:52.970Z,38.35
2022-12-14T20:08:19.873Z,33.67
2022-12-14T20:10:46.819Z,33.85
2022-12-14T20:13:15.092Z,29.17
2022-12-14T20:15:47.945Z,34.50
2022-12-14T20:18:14.861Z,37.40
2022-12-14T20:20:41.681Z,48.05
2022-12-14T20:23:08.395Z,23.88
2022-12-14T20:25:35.404Z,44.65
2022-12-14T20:28:02.293Z,43.50
2022-12-14T20:30:31.126Z,35.88
2022-12-14T20:32:58.069Z,41.75
2022-12-14T20:35:24.937Z,35.60
2022-12-14T20:37:52.878Z,26.42
2022-12-14T20:40:19.615Z,42.17
2022-12-14T20:42:46.333Z,38.10
2022-12-14T20:45:13.227Z,42.90
2022-12-14T20:47:41.311Z,31.63
2022-12-14T20:50:08.271Z,44.42
2022-12-14T20:52:35.059Z,36.60
2022-12-14T20:55:02.225Z,37.92
2022-12-14T20:57:30.311Z,47.35
2022-12-14T20:59:59.396Z,41.70
2022-12-14T21:02:26.532Z,45.10
2022-12-14T21:04:54.732Z,25.70
2022-12-14T21:07:26.130Z,25.25
2022-12-14T21:09:53.460Z,41.13
2022-12-14T21:12:20.212Z,51.53
2022-12-14T21:14:48.093Z,49.67
2022-12-14T21:17:15.058Z,59.67
2022-12-14T21:19:41.927Z,41.85
2022-12-14T21:22:13.688Z,49.95
2022-12-14T21:27:28.618Z,97.32
2022-12-14T21:29:55.455Z,52.25
2022-12-14T21:32:22.716Z,84.88
2022-12-14T21:34:49.881Z,96.88
2022-12-14T21:37:18.393Z,92.93
2022-12-14T21:39:52.373Z,62.60
2022-12-14T21:42:21.828Z,83.78
2022-12-14T21:44:50.518Z,75.55
2022-12-14T21:47:18.921Z,70.07
2022-12-14T21:49:46.194Z,62.13
2022-12-14T21:52:14.342Z,56.40
2022-12-14T21:54:42.734Z,32.05
2022-12-14T21:57:12.980Z,44.10
2022-12-14T21:59:41.777Z,53.92
2022-12-14T22:02:13.617Z,60.80
2022-12-14T22:04:40.559Z,37.33
2022-12-14T22:07:07.302Z,40.10
2022-12-14T22:09:34.164Z,35.20
2022-12-14T22:12:02.276Z,44.97
2022-12-14T22:14:29.010Z,51.03
2022-12-14T22:16:55.767Z,54.35
2022-12-14T22:19:24.212Z,73.22
2022-12-14T22:21:52.156Z,49.42
2022-12-14T22:24:20.255Z,64.15
2022-12-14T22:26:47.259Z,51.22
2022-12-14T22:29:17.221Z,61.95
2022-12-14T22:31:44.483Z,61.67
2022-12-14T22:34:15.140Z,37.70
2022-12-14T22:36:41.885Z,34.88
2022-12-14T22:39:09.677Z,37.33
2022-12-14T22:41:36.726Z,41.85
2022-12-14T22:44:05.034Z,56.13
2022-12-14T22:46:33.407Z,54.35
2022-12-14T22:49:00.815Z,72.05
2022-12-14T22:51:27.632Z,56.60
2022-12-14T22:53:54.493Z,52.58
2022-12-14T22:56:24.515Z,59.08
2022-12-14T22:58:56.155Z,63.88
2022-12-14T23:01:23.106Z,55.17
2022-12-14T23:03:52.723Z,66.45
2022-12-14T23:06:19.843Z,82.45
2022-12-14T23:08:48.240Z,49.30
2022-12-14T23:11:15.200Z,52.38
2022-12-14T23:13:41.935Z,60.05
2022-12-14T23:16:08.708Z,39.15
2022-12-14T23:18:35.487Z,42.50
2022-12-14T23:21:09.788Z,46.05
2022-12-14T23:23:38.200Z,44.42
2022-12-14T23:26:05.204Z,42.60
2022-12-14T23:28:32.145Z,42.03
2022-12-14T23:30:59.041Z,36.08
2022-12-14T23:33:25.872Z,30.67
2022-12-14T23:35:52.632Z,34.08
2022-12-14T23:38:20.715Z,37.05
2022-12-14T23:40:47.429Z,40.72
2022-12-14T23:43:16.722Z,43.83
2022-12-14T23:45:43.573Z,37.75
2022-12-14T23:48:10.360Z,33.15
2022-12-14T23:50:37.071Z,42.72
2022-12-14T23:53:07.183Z,76.55
2022-12-14T23:55:35.361Z,80.00
2022-12-14T23:58:02.207Z,64.07
